Time;durP1;ratioP1;P1;durP2;ratioP2;P2;SDS_P1;SDS_P2;PMS_P1;PMS_P2;Temp;Humidity;BMP_temperature;BMP_pressure;BME280_temperature;BME280_humidity;BME280_pressure;Samples;Min_cycle;Max_cycle;Signal;HPM_P1;HPM_P2
2021/08/07 00:00:35;;;;;;;24.30;23.10;;;17.30;84.40;;;;;;5106071;28;20455;-73
2021/08/07 00:03:02;;;;;;;24.87;23.50;;;17.30;84.20;;;;;;5109102;28;20460;-74
2021/08/07 00:05:29;;;;;;;24.20;22.90;;;17.30;84.50;;;;;;5108431;28;20459;-73
2021/08/07 00:07:55;;;;;;;23.77;22.47;;;17.30;84.60;;;;;;5099222;28;20472;-73
2021/08/07 00:10:24;;;;;;;24.30;22.80;;;17.20;84.90;;;;;;5100726;28;21978;-73
2021/08/07 00:12:52;;;;;;;24.50;23.13;;;17.20;85.00;;;;;;5106661;27;20452;-73
2021/08/07 00:15:18;;;;;;;24.70;23.40;;;17.20;85.10;;;;;;5106068;28;20460;-73
2021/08/07 00:17:45;;;;;;;23.23;22.03;;;17.30;84.70;;;;;;5112387;28;20475;-73
2021/08/07 00:20:13;;;;;;;24.00;22.70;;;17.30;84.70;;;;;;5114029;28;20543;-73
2021/08/07 00:22:39;;;;;;;25.17;23.73;;;17.20;84.80;;;;;;5105753;27;20999;-73
2021/08/07 00:25:08;;;;;;;24.70;23.33;;;17.20;84.80;;;;;;5110681;28;20573;-73
2021/08/07 00:27:37;;;;;;;23.70;22.50;;;17.20;85.00;;;;;;5112707;27;20483;-73
2021/08/07 00:30:04;;;;;;;24.03;22.73;;;17.20;85.10;;;;;;5116676;27;20535;-73
2021/08/07 00:32:31;;;;;;;23.40;22.17;;;17.20;85.10;;;;;;5107745;27;20459;-73
2021/08/07 00:34:58;;;;;;;24.20;22.70;;;17.10;85.10;;;;;;5111625;27;20458;-73
2021/08/07 00:37:25;;;;;;;24.40;22.80;;;17.10;85.20;;;;;;5108067;27;21241;-73
2021/08/07 00:39:52;;;;;;;22.60;21.50;;;17.10;85.40;;;;;;5108157;28;20463;-73
2021/08/07 00:42:19;;;;;;;23.03;21.80;;;17.10;85.40;;;;;;5106484;27;20938;-73
2021/08/07 00:44:47;;;;;;;23.30;22.10;;;17.10;85.50;;;;;;5110027;28;20544;-73
2021/08/07 00:47:14;;;;;;;23.30;22.00;;;17.10;85.60;;;;;;5108931;28;20555;-73
2021/08/07 00:49:43;;;;;;;22.70;21.50;;;17.10;85.70;;;;;;5100619;28;20853;-73
2021/08/07 00:52:10;;;;;;;21.90;20.80;;;17.10;85.60;;;;;;5108299;27;20869;-73
2021/08/07 00:54:39;;;;;;;22.90;21.60;;;17.10;85.70;;;;;;5110796;27;20461;-73
2021/08/07 00:57:06;;;;;;;22.93;21.50;;;17.10;85.70;;;;;;5108354;28;20478;-73
2021/08/07 00:59:33;;;;;;;22.60;21.30;;;17.10;85.60;;;;;;5112144;27;20474;-72
2021/08/07 01:02:05;;;;;;;22.63;21.47;;;17.10;85.80;;;;;;5110488;27;20545;-72
2021/08/07 01:04:38;;;;;;;23.07;21.67;;;17.10;85.80;;;;;;5109991;27;20475;-71
2021/08/07 01:07:11;;;;;;;23.30;22.10;;;17.10;85.60;;;;;;5108060;28;20486;-72
2021/08/07 01:09:47;;;;;;;22.37;21.17;;;17.20;85.50;;;;;;5111593;27;20527;-71
2021/08/07 01:12:21;;;;;;;23.50;22.03;;;17.20;85.60;;;;;;5108582;28;20527;-71
2021/08/07 01:14:50;;;;;;;22.40;21.20;;;17.10;85.80;;;;;;5115234;27;20456;-71
2021/08/07 01:17:24;;;;;;;22.00;20.90;;;17.10;85.90;;;;;;5109080;28;20555;-72
2021/08/07 01:19:59;;;;;;;22.60;21.37;;;17.10;86.00;;;;;;5121065;27;20810;-73
2021/08/07 01:22:35;;;;;;;23.30;22.00;;;17.10;85.90;;;;;;5111627;27;20452;-73
2021/08/07 01:25:06;;;;;;;23.10;21.80;;;17.20;85.80;;;;;;5110979;27;20547;-73
2021/08/07 01:27:38;;;;;;;22.60;21.30;;;17.10;86.10;;;;;;5109534;27;20537;-73
2021/08/07 01:30:08;;;;;;;22.73;21.43;;;17.10;86.20;;;;;;5110856;27;20900;-73
2021/08/07 01:32:36;;;;;;;23.03;21.83;;;17.10;86.10;;;;;;5110671;27;20454;-73
2021/08/07 01:35:06;;;;;;;22.60;21.40;;;17.00;86.30;;;;;;5108866;28;20996;-73
2021/08/07 01:37:33;;;;;;;22.23;21.03;;;17.00;86.50;;;;;;5107688;27;20473;-73
2021/08/07 01:40:00;;;;;;;21.97;20.77;;;17.00;86.30;;;;;;5110820;28;20996;-73
2021/08/07 01:42:28;;;;;;;22.47;21.17;;;17.00;86.40;;;;;;5105927;27;22115;-73
2021/08/07 01:44:56;;;;;;;23.10;21.70;;;17.10;86.40;;;;;;5110547;28;20548;-73
2021/08/07 01:47:29;;;;;;;23.10;21.90;;;17.00;86.50;;;;;;5106150;28;21007;-73
2021/08/07 01:50:02;;;;;;;23.60;22.20;;;17.00;86.70;;;;;;5101883;28;20465;-73
2021/08/07 01:52:34;;;;;;;24.43;23.03;;;17.00;86.90;;;;;;5107479;28;20457;-74
2021/08/07 01:55:04;;;;;;;23.70;22.30;;;17.00;86.90;;;;;;5107135;28;21212;-73
2021/08/07 01:57:34;;;;;;;23.83;22.43;;;17.00;86.90;;;;;;5108687;28;20476;-73
2021/08/07 02:00:05;;;;;;;22.63;21.40;;;17.00;86.80;;;;;;5110928;28;20455;-72
2021/08/07 02:02:33;;;;;;;23.07;21.57;;;17.00;86.70;;;;;;5107024;28;20459;-73
2021/08/07 02:05:00;;;;;;;22.47;21.30;;;17.00;86.90;;;;;;5108404;27;21077;-73
2021/08/07 02:07:28;;;;;;;22.20;20.90;;;17.00;87.10;;;;;;5106085;27;20479;-73
2021/08/07 02:09:56;;;;;;;22.60;21.27;;;17.00;87.00;;;;;;5102976;27;20459;-73
2021/08/07 02:12:23;;;;;;;23.20;21.63;;;17.10;86.90;;;;;;5110086;27;20810;-73
2021/08/07 02:14:52;;;;;;;22.60;21.27;;;17.10;86.90;;;;;;5113179;27;20473;-73
2021/08/07 02:17:21;;;;;;;22.10;21.00;;;17.20;86.70;;;;;;5107722;28;20490;-73
2021/08/07 02:19:49;;;;;;;23.70;22.23;;;17.20;86.40;;;;;;5115589;27;20482;-73
2021/08/07 02:22:19;;;;;;;23.10;21.43;;;17.20;86.40;;;;;;5098480;28;20481;-73
2021/08/07 02:24:46;;;;;;;22.07;20.87;;;17.20;86.50;;;;;;5111120;27;20448;-73
2021/08/07 02:27:14;;;;;;;22.83;21.63;;;17.20;86.60;;;;;;5106906;28;20504;-73
2021/08/07 02:29:42;;;;;;;22.80;21.40;;;17.20;86.70;;;;;;5110131;27;20466;-73
2021/08/07 02:32:10;;;;;;;24.83;23.33;;;17.30;86.50;;;;;;5107756;28;20455;-73
2021/08/07 02:34:39;;;;;;;23.30;21.93;;;17.30;86.30;;;;;;5107748;27;20457;-73
2021/08/07 02:37:06;;;;;;;22.67;21.37;;;17.30;86.20;;;;;;5109912;27;20472;-73
2021/08/07 02:39:34;;;;;;;22.33;21.23;;;17.20;86.30;;;;;;5104299;28;20820;-73
2021/08/07 02:42:02;;;;;;;22.40;21.10;;;17.20;86.70;;;;;;5106375;28;20938;-73
2021/08/07 02:44:29;;;;;;;22.63;21.43;;;17.20;86.80;;;;;;5108101;28;20461;-73
2021/08/07 02:46:57;;;;;;;22.37;20.77;;;17.20;86.80;;;;;;5104095;28;20471;-73
2021/08/07 02:49:24;;;;;;;23.43;21.73;;;17.20;87.00;;;;;;5108859;28;20517;-73
2021/08/07 02:51:54;;;;;;;23.37;21.70;;;17.10;87.10;;;;;;5114616;27;20483;-74
2021/08/07 02:54:21;;;;;;;22.70;21.50;;;17.10;87.10;;;;;;5109383;28;20451;-73
2021/08/07 02:56:48;;;;;;;22.83;21.23;;;17.10;87.10;;;;;;5104076;28;20471;-73
2021/08/07 02:59:15;;;;;;;22.40;21.10;;;17.10;87.00;;;;;;5112471;27;20481;-73
2021/08/07 03:01:42;;;;;;;22.10;20.87;;;17.10;87.00;;;;;;5105498;28;20464;-73
2021/08/07 03:04:09;;;;;;;22.30;21.10;;;17.10;86.90;;;;;;5107801;28;20459;-71
2021/08/07 03:06:36;;;;;;;22.20;21.00;;;17.00;87.10;;;;;;5104104;28;20475;-72
2021/08/07 03:09:04;;;;;;;23.23;21.70;;;17.00;87.20;;;;;;5117329;27;20440;-71
2021/08/07 03:11:31;;;;;;;21.63;20.53;;;17.00;87.30;;;;;;5096053;28;20475;-71
2021/08/07 03:13:58;;;;;;;21.93;20.73;;;17.00;87.20;;;;;;5093451;28;20465;-72
2021/08/07 03:16:27;;;;;;;21.90;20.70;;;16.90;87.80;;;;;;5104726;28;20488;-71
2021/08/07 03:18:54;;;;;;;22.10;20.90;;;16.90;87.70;;;;;;5116000;28;20563;-71
2021/08/07 03:21:21;;;;;;;22.37;21.07;;;16.90;87.50;;;;;;5109549;28;20564;-73
2021/08/07 03:23:48;;;;;;;21.63;20.40;;;16.80;87.70;;;;;;5108196;28;20487;-73
2021/08/07 03:26:16;;;;;;;22.17;21.00;;;16.80;87.90;;;;;;5108600;28;20502;-73
2021/08/07 03:28:43;;;;;;;22.40;21.10;;;16.80;88.10;;;;;;5107190;27;20458;-73
2021/08/07 03:31:10;;;;;;;25.17;23.67;;;16.80;87.80;;;;;;5109486;28;21186;-73
2021/08/07 03:33:37;;;;;;;22.27;21.07;;;16.80;87.80;;;;;;5113336;28;20452;-73
2021/08/07 03:36:04;;;;;;;22.33;21.03;;;16.70;88.00;;;;;;5106737;28;20882;-73
2021/08/07 03:38:31;;;;;;;21.73;20.53;;;16.70;87.90;;;;;;5105877;28;20477;-73
2021/08/07 03:40:58;;;;;;;22.17;20.77;;;16.60;88.00;;;;;;5108877;28;20460;-73
2021/08/07 03:43:27;;;;;;;24.37;22.97;;;16.60;88.40;;;;;;5111709;27;20472;-73
2021/08/07 03:45:54;;;;;;;21.87;20.60;;;16.60;88.60;;;;;;5107581;28;20452;-73
2021/08/07 03:48:21;;;;;;;23.50;22.20;;;16.60;88.50;;;;;;5103569;28;20457;-73
2021/08/07 03:50:48;;;;;;;22.13;20.80;;;16.60;88.40;;;;;;5105835;28;20444;-73
2021/08/07 03:53:15;;;;;;;21.90;20.80;;;16.60;88.30;;;;;;5107231;28;20460;-73
2021/08/07 03:55:42;;;;;;;21.63;20.53;;;16.50;88.30;;;;;;5107457;28;20468;-73
2021/08/07 03:58:09;;;;;;;21.90;20.70;;;16.50;88.30;;;;;;5113626;27;20479;-72
2021/08/07 04:00:38;;;;;;;22.43;21.20;;;16.50;88.60;;;;;;5112898;27;20507;-72
2021/08/07 04:03:05;;;;;;;23.50;22.00;;;16.50;88.50;;;;;;5110016;27;20464;-73
2021/08/07 04:05:32;;;;;;;22.57;21.37;;;16.40;88.60;;;;;;5110125;28;20463;-73
2021/08/07 04:08:03;;;;;;;22.60;21.37;;;16.40;88.70;;;;;;5109601;27;20472;-73
2021/08/07 04:10:30;;;;;;;23.73;22.33;;;16.50;88.60;;;;;;5111551;27;20444;-73
2021/08/07 04:12:57;;;;;;;22.63;21.17;;;16.50;88.90;;;;;;5111343;28;20452;-73
2021/08/07 04:15:24;;;;;;;22.70;21.30;;;16.50;88.70;;;;;;5109253;28;20549;-73
2021/08/07 04:17:52;;;;;;;21.93;20.63;;;16.50;88.60;;;;;;5111217;27;20465;-72
2021/08/07 04:20:19;;;;;;;23.33;21.93;;;16.50;88.30;;;;;;5118472;27;20554;-73
2021/08/07 04:22:46;;;;;;;21.87;20.73;;;16.50;88.20;;;;;;5117096;27;20965;-73
2021/08/07 04:25:14;;;;;;;21.80;20.60;;;16.50;88.00;;;;;;5112244;27;20463;-73
2021/08/07 04:27:41;;;;;;;22.50;21.30;;;16.50;88.00;;;;;;5108153;28;20555;-73
2021/08/07 04:30:10;;;;;;;22.67;21.33;;;16.50;87.90;;;;;;5111042;27;20459;-73
2021/08/07 04:32:38;;;;;;;25.30;23.90;;;16.60;87.90;;;;;;5109850;28;20456;-73
2021/08/07 04:35:07;;;;;;;23.23;21.93;;;16.60;87.50;;;;;;5112877;27;20543;-73
2021/08/07 04:37:45;;;;;;;26.23;24.70;;;16.60;87.50;;;;;;5108610;28;21033;-72
2021/08/07 04:40:13;;;;;;;22.20;20.80;;;16.60;87.30;;;;;;5109550;27;20485;-73
2021/08/07 04:42:40;;;;;;;23.30;21.80;;;16.70;87.40;;;;;;5104782;28;20509;-73
2021/08/07 04:45:08;;;;;;;24.43;22.70;;;16.70;87.20;;;;;;5111039;28;20818;-73
2021/08/07 04:47:35;;;;;;;23.50;22.30;;;16.80;86.60;;;;;;5106112;27;21219;-73
2021/08/07 04:50:02;;;;;;;24.97;23.63;;;16.90;86.30;;;;;;5107982;28;20985;-73
2021/08/07 04:52:30;;;;;;;23.83;22.43;;;16.90;86.00;;;;;;5110060;27;20448;-73
2021/08/07 04:54:57;;;;;;;23.50;22.20;;;16.90;86.00;;;;;;5111133;28;20460;-73
2021/08/07 04:57:24;;;;;;;23.47;22.37;;;16.90;85.90;;;;;;5106303;27;20480;-73
2021/08/07 04:59:51;;;;;;;23.40;22.10;;;17.00;85.70;;;;;;5110057;28;20479;-73
2021/08/07 05:02:17;;;;;;;24.50;23.20;;;17.00;85.70;;;;;;5115720;27;20565;-72
2021/08/07 05:04:44;;;;;;;22.47;21.13;;;17.20;85.50;;;;;;5111604;27;20472;-73
2021/08/07 05:07:11;;;;;;;23.40;21.80;;;17.30;85.30;;;;;;5108585;28;20476;-73
2021/08/07 05:09:39;;;;;;;23.37;21.90;;;17.40;84.90;;;;;;5109817;27;20448;-73
2021/08/07 05:12:06;;;;;;;23.07;21.87;;;17.40;84.60;;;;;;5108289;27;23464;-72
2021/08/07 05:14:33;;;;;;;26.40;24.60;;;17.40;84.30;;;;;;5112178;27;20490;-72
2021/08/07 05:17:00;;;;;;;24.60;23.20;;;17.40;83.80;;;;;;5114514;27;20581;-71
2021/08/07 05:19:27;;;;;;;23.97;22.37;;;17.40;84.10;;;;;;5105748;28;20484;-71
2021/08/07 05:21:54;;;;;;;22.70;21.50;;;17.30;84.60;;;;;;5111111;27;20539;-71
2021/08/07 05:24:21;;;;;;;24.57;23.20;;;17.30;84.60;;;;;;5112465;28;20547;-72
2021/08/07 05:26:49;;;;;;;23.90;22.70;;;17.30;84.60;;;;;;5108169;27;20477;-72
2021/08/07 05:29:16;;;;;;;23.50;22.20;;;17.40;84.00;;;;;;5118691;27;20503;-72
2021/08/07 05:31:43;;;;;;;24.40;22.70;;;17.40;83.60;;;;;;5116019;27;20577;-71
2021/08/07 05:34:10;;;;;;;24.60;23.10;;;17.50;83.60;;;;;;5116533;27;20533;-72
2021/08/07 05:36:36;;;;;;;26.20;24.80;;;17.50;83.30;;;;;;5107994;27;20562;-71
2021/08/07 05:39:03;;;;;;;24.77;23.37;;;17.60;83.00;;;;;;5110370;28;20538;-71
2021/08/07 05:41:30;;;;;;;27.53;25.40;;;17.70;82.70;;;;;;5104094;28;20893;-73
2021/08/07 05:43:59;;;;;;;24.93;23.30;;;17.80;82.60;;;;;;5109091;27;21022;-72
2021/08/07 05:46:25;;;;;;;25.63;23.83;;;17.80;82.10;;;;;;5108433;27;20475;-71
2021/08/07 05:48:54;;;;;;;25.27;23.87;;;17.90;82.10;;;;;;5106927;28;20454;-71
2021/08/07 05:51:21;;;;;;;24.60;23.30;;;18.10;82.00;;;;;;5109583;27;20454;-72
2021/08/07 05:53:48;;;;;;;25.70;24.37;;;18.20;81.60;;;;;;5108001;28;20448;-73
2021/08/07 05:56:16;;;;;;;27.10;25.30;;;18.40;81.00;;;;;;5108954;27;20536;-73
2021/08/07 05:58:42;;;;;;;24.97;23.67;;;18.50;80.20;;;;;;5110800;27;20495;-73
2021/08/07 06:01:11;;;;;;;26.13;24.50;;;18.60;80.20;;;;;;5107977;28;20876;-72
2021/08/07 06:03:37;;;;;;;28.97;27.27;;;18.70;79.80;;;;;;5111071;28;20448;-72
2021/08/07 06:06:04;;;;;;;26.93;25.43;;;18.80;79.70;;;;;;5108088;28;20492;-71
2021/08/07 06:08:31;;;;;;;27.07;25.57;;;18.80;79.80;;;;;;5108161;27;20460;-72
2021/08/07 06:10:59;;;;;;;26.60;25.20;;;18.90;79.60;;;;;;5106148;28;20459;-72
2021/08/07 06:13:26;;;;;;;28.97;26.97;;;19.00;79.00;;;;;;5110469;28;20554;-72
2021/08/07 06:15:53;;;;;;;29.50;27.87;;;19.10;78.80;;;;;;5107299;28;20837;-72
2021/08/07 06:18:21;;;;;;;26.83;25.33;;;19.20;78.50;;;;;;5110191;27;20483;-71
2021/08/07 06:20:49;;;;;;;31.30;29.40;;;19.40;77.80;;;;;;5103555;27;20473;-72
2021/08/07 06:23:16;;;;;;;27.40;25.90;;;19.60;77.30;;;;;;5118338;27;20478;-72
2021/08/07 06:25:43;;;;;;;27.57;26.17;;;19.80;76.60;;;;;;5109466;27;20456;-74
2021/08/07 06:28:10;;;;;;;25.90;24.40;;;19.90;75.80;;;;;;5109227;27;20514;-73
2021/08/07 06:30:43;;;;;;;26.93;25.27;;;20.10;75.70;;;;;;5104434;28;23089;-73
2021/08/07 06:33:09;;;;;;;27.53;25.80;;;20.20;75.40;;;;;;5110884;28;20529;-72
2021/08/07 06:35:38;;;;;;;26.20;24.70;;;20.50;75.00;;;;;;5108023;28;20456;-72
2021/08/07 06:38:05;;;;;;;26.83;25.23;;;20.70;73.80;;;;;;5107983;27;20476;-74
2021/08/07 06:40:32;;;;;;;28.43;26.90;;;20.90;73.10;;;;;;5105181;28;20838;-72
2021/08/07 06:42:58;;;;;;;28.17;26.47;;;21.00;72.40;;;;;;5106344;28;20547;-72
2021/08/07 06:45:25;;;;;;;26.63;25.20;;;21.20;72.10;;;;;;5102814;27;20467;-72
2021/08/07 06:47:52;;;;;;;25.97;24.57;;;21.30;71.20;;;;;;5109617;28;20482;-73
2021/08/07 06:50:19;;;;;;;27.23;25.83;;;21.30;69.80;;;;;;5099968;28;20457;-75
2021/08/07 06:52:48;;;;;;;26.90;25.30;;;21.30;69.80;;;;;;5103453;28;21299;-79
2021/08/07 06:55:14;;;;;;;27.00;25.50;;;21.40;69.80;;;;;;5111061;28;20872;-76
2021/08/07 06:57:42;;;;;;;27.07;25.57;;;21.60;68.80;;;;;;5105333;28;20472;-76
2021/08/07 07:00:11;;;;;;;27.10;25.70;;;21.70;68.40;;;;;;5108584;27;20476;-77
2021/08/07 07:02:38;;;;;;;27.10;25.50;;;21.70;68.20;;;;;;5113874;27;20457;-76
2021/08/07 07:05:06;;;;;;;27.13;25.47;;;21.70;67.70;;;;;;5107721;28;20457;-76
2021/08/07 07:07:33;;;;;;;26.50;25.10;;;21.50;68.00;;;;;;5105944;28;20468;-77
2021/08/07 07:10:01;;;;;;;25.77;24.27;;;21.60;68.20;;;;;;5107770;28;20489;-78
2021/08/07 07:12:28;;;;;;;26.10;24.60;;;21.80;67.50;;;;;;5105497;28;20453;-77
2021/08/07 07:14:55;;;;;;;26.67;25.07;;;22.00;67.30;;;;;;5107136;27;20559;-77
2021/08/07 07:17:24;;;;;;;26.70;25.00;;;22.10;66.80;;;;;;5104070;28;20480;-76
2021/08/07 07:19:51;;;;;;;26.47;24.87;;;22.30;66.70;;;;;;5100562;28;20863;-75
2021/08/07 07:22:18;;;;;;;26.53;25.00;;;22.50;66.00;;;;;;5107410;28;20479;-76
2021/08/07 07:24:45;;;;;;;27.03;25.50;;;22.70;65.70;;;;;;5103683;28;20452;-72
2021/08/07 07:27:13;;;;;;;28.93;27.43;;;22.80;65.00;;;;;;5103502;28;20472;-73
2021/08/07 07:29:42;;;;;;;27.20;25.60;;;22.80;65.00;;;;;;5109872;28;20506;-72
2021/08/07 07:32:10;;;;;;;26.73;25.13;;;23.00;65.20;;;;;;5109026;28;21030;-72
2021/08/07 07:34:37;;;;;;;28.17;26.60;;;23.10;64.70;;;;;;5101067;27;20463;-72
2021/08/07 07:37:06;;;;;;;26.33;24.93;;;23.20;64.50;;;;;;5101676;28;20475;-73
2021/08/07 07:39:33;;;;;;;27.17;25.67;;;23.30;64.30;;;;;;5111038;28;20456;-72
2021/08/07 07:42:00;;;;;;;27.20;25.70;;;23.30;64.00;;;;;;5104037;27;20459;-73
2021/08/07 07:44:29;;;;;;;27.23;25.73;;;23.40;63.80;;;;;;5107069;28;20476;-75
2021/08/07 07:46:56;;;;;;;27.00;25.47;;;23.60;63.30;;;;;;5100578;27;20476;-76
2021/08/07 07:49:23;;;;;;;26.37;24.97;;;23.80;63.20;;;;;;5104576;27;20453;-76
2021/08/07 07:51:50;;;;;;;28.57;26.93;;;24.00;62.40;;;;;;5107466;28;20454;-76
2021/08/07 07:54:17;;;;;;;27.23;25.63;;;24.20;62.00;;;;;;5095043;28;20460;-76
2021/08/07 07:56:44;;;;;;;26.50;25.00;;;24.20;61.80;;;;;;5100180;27;20923;-76
2021/08/07 07:59:11;;;;;;;27.70;26.20;;;24.10;61.40;;;;;;5109148;27;20464;-75
2021/08/07 08:01:40;;;;;;;27.70;26.03;;;24.10;62.00;;;;;;5104270;27;20819;-72
2021/08/07 08:04:07;;;;;;;26.47;24.83;;;24.20;62.30;;;;;;5106857;28;20959;-72
2021/08/07 08:06:34;;;;;;;28.67;27.03;;;24.20;62.10;;;;;;5108101;27;20497;-73
2021/08/07 08:09:01;;;;;;;25.30;24.00;;;24.40;62.00;;;;;;5113156;28;20451;-73
2021/08/07 08:11:28;;;;;;;25.90;24.50;;;24.50;61.90;;;;;;5111371;28;20452;-73
2021/08/07 08:13:55;;;;;;;26.60;25.10;;;24.60;61.30;;;;;;5109136;27;20460;-73
2021/08/07 08:16:22;;;;;;;28.63;27.03;;;24.80;61.00;;;;;;5098078;27;20820;-73
2021/08/07 08:19:00;;;;;;;28.93;27.17;;;24.80;61.20;;;;;;5106062;28;20539;-73
2021/08/07 08:21:27;;;;;;;25.80;24.30;;;24.90;61.50;;;;;;5100454;28;20460;-73
2021/08/07 08:23:54;;;;;;;26.03;24.53;;;24.90;60.80;;;;;;5102220;27;20950;-73
2021/08/07 08:26:21;;;;;;;27.30;25.70;;;25.10;60.80;;;;;;5104700;28;20489;-73
2021/08/07 08:28:48;;;;;;;26.77;25.37;;;25.20;59.70;;;;;;5112042;27;20475;-73
2021/08/07 08:31:15;;;;;;;26.87;25.27;;;25.30;58.90;;;;;;5115531;27;20462;-72
2021/08/07 08:33:42;;;;;;;27.97;26.47;;;25.30;58.70;;;;;;5115250;27;20456;-72
2021/08/07 08:36:10;;;;;;;29.13;27.23;;;25.30;58.90;;;;;;5111684;27;20463;-74
2021/08/07 08:38:37;;;;;;;28.20;26.60;;;25.50;59.00;;;;;;5116582;27;20457;-73
2021/08/07 08:41:04;;;;;;;26.53;25.13;;;25.50;58.40;;;;;;5106736;28;20482;-73
2021/08/07 08:43:32;;;;;;;29.20;27.50;;;25.60;58.30;;;;;;5108660;27;20452;-73
2021/08/07 08:45:59;;;;;;;28.00;26.50;;;25.50;58.40;;;;;;5109782;28;20478;-73
2021/08/07 08:48:26;;;;;;;27.47;25.87;;;25.50;58.70;;;;;;5104212;27;20464;-74
2021/08/07 08:50:54;;;;;;;28.43;26.87;;;25.50;58.70;;;;;;5105000;28;20453;-73
2021/08/07 08:53:23;;;;;;;27.37;25.83;;;25.50;58.80;;;;;;5109850;28;20837;-74
2021/08/07 08:55:50;;;;;;;29.60;28.10;;;25.60;58.00;;;;;;5108290;27;20821;-73
2021/08/07 08:58:17;;;;;;;27.67;26.07;;;25.60;57.80;;;;;;5108187;27;20472;-74
2021/08/07 09:00:45;;;;;;;28.50;26.90;;;25.50;57.80;;;;;;5111910;27;20472;-73
2021/08/07 09:03:12;;;;;;;30.47;28.90;;;25.50;58.00;;;;;;5109778;27;20459;-73
2021/08/07 09:05:39;;;;;;;28.63;27.13;;;25.50;58.30;;;;;;5106059;28;20460;-73
2021/08/07 09:08:06;;;;;;;26.97;25.10;;;25.40;58.10;;;;;;5102491;27;20469;-73
2021/08/07 09:10:36;;;;;;;28.03;26.43;;;25.30;58.30;;;;;;5104245;28;20893;-73
2021/08/07 09:13:03;;;;;;;29.07;27.47;;;25.30;58.40;;;;;;5095525;28;20947;-73
2021/08/07 09:15:34;;;;;;;27.57;25.90;;;25.20;59.20;;;;;;5109269;28;20452;-73
2021/08/07 09:18:28;;;;;;;27.03;25.47;;;25.20;59.20;;;;;;5104761;28;20469;-73
2021/08/07 09:20:55;;;;;;;28.10;26.60;;;25.10;59.20;;;;;;5069023;28;20586;-73
2021/08/07 09:23:33;;;;;;;28.90;27.30;;;25.10;59.20;;;;;;5092424;28;21415;-73
2021/08/07 09:26:17;;;;;;;26.50;25.07;;;25.10;58.90;;;;;;5101926;28;20492;-73
2021/08/07 09:28:46;;;;;;;27.37;25.90;;;25.20;59.20;;;;;;5104312;28;20452;-73
2021/08/07 09:31:13;;;;;;;28.43;26.83;;;25.20;59.40;;;;;;5103988;28;20456;-73
2021/08/07 09:33:40;;;;;;;29.30;27.60;;;25.40;59.50;;;;;;5104968;28;21259;-73
2021/08/07 09:36:07;;;;;;;28.40;26.90;;;25.30;59.30;;;;;;5103979;27;20532;-72
2021/08/07 09:38:42;;;;;;;28.43;26.67;;;25.20;59.30;;;;;;5109389;27;20457;-73
2021/08/07 09:41:09;;;;;;;27.23;25.63;;;25.20;59.10;;;;;;5104621;28;20507;-73
2021/08/07 09:43:45;;;;;;;28.00;26.33;;;25.10;58.80;;;;;;5109908;28;20872;-73
2021/08/07 09:46:14;;;;;;;29.93;28.20;;;25.10;59.50;;;;;;5091411;28;21038;-73
2021/08/07 09:48:43;;;;;;;28.23;26.60;;;25.00;59.70;;;;;;5101929;28;20482;-73
2021/08/07 09:51:27;;;;;;;28.37;26.77;;;25.00;59.60;;;;;;5095913;28;20484;-73
2021/08/07 09:54:07;;;;;;;28.13;26.57;;;24.90;59.00;;;;;;5101843;27;20464;-73
2021/08/07 09:56:48;;;;;;;27.30;25.80;;;24.70;59.40;;;;;;5091672;27;20521;-73
2021/08/07 09:59:18;;;;;;;28.50;26.93;;;24.60;60.10;;;;;;5099300;28;20453;-73
2021/08/07 10:01:46;;;;;;;27.90;26.40;;;24.50;60.60;;;;;;5097226;28;20563;-73
2021/08/07 10:04:14;;;;;;;29.83;28.03;;;24.40;61.60;;;;;;5107135;27;20448;-73
2021/08/07 10:06:43;;;;;;;28.37;26.77;;;24.30;63.40;;;;;;5102483;28;20891;-73
2021/08/07 10:09:11;;;;;;;30.27;28.57;;;24.10;65.10;;;;;;5096854;28;20517;-73
2021/08/07 10:11:38;;;;;;;29.27;27.57;;;24.00;64.90;;;;;;5094438;28;20464;-72
2021/08/07 10:14:06;;;;;;;28.60;26.80;;;23.80;65.30;;;;;;5107038;28;20535;-72
2021/08/07 10:16:35;;;;;;;28.07;26.30;;;23.70;66.10;;;;;;5091998;28;20469;-72
2021/08/07 10:19:03;;;;;;;30.23;28.53;;;23.60;67.00;;;;;;5105201;28;20529;-72
2021/08/07 10:21:31;;;;;;;29.97;28.00;;;23.40;68.70;;;;;;5099234;28;20472;-72
2021/08/07 10:23:59;;;;;;;28.97;27.27;;;23.30;69.50;;;;;;5102316;28;20996;-72
2021/08/07 10:26:28;;;;;;;29.03;27.23;;;23.10;70.20;;;;;;5102903;27;20479;-72
2021/08/07 10:28:58;;;;;;;28.53;26.73;;;23.10;71.40;;;;;;5100782;28;20509;-72
2021/08/07 10:31:27;;;;;;;29.30;27.60;;;22.90;72.70;;;;;;5102284;28;20478;-72
2021/08/07 10:33:58;;;;;;;28.03;26.53;;;22.70;73.30;;;;;;5108221;27;20457;-72
2021/08/07 10:36:27;;;;;;;28.40;26.80;;;22.50;74.30;;;;;;5106266;28;20476;-72
2021/08/07 10:38:54;;;;;;;27.73;26.13;;;22.40;75.00;;;;;;5105918;28;20460;-72
2021/08/07 10:41:22;;;;;;;29.07;27.23;;;22.30;75.40;;;;;;5108074;27;20472;-72
2021/08/07 10:43:52;;;;;;;29.07;26.77;;;22.20;75.50;;;;;;5104393;28;20922;-72
2021/08/07 10:46:20;;;;;;;29.63;27.93;;;22.10;75.60;;;;;;5104044;28;20476;-72
2021/08/07 10:48:49;;;;;;;29.67;27.77;;;22.00;76.50;;;;;;5092933;28;20799;-72
2021/08/07 10:51:37;;;;;;;26.60;25.10;;;21.90;76.60;;;;;;5088524;28;20544;-72
2021/08/07 10:54:33;;;;;;;27.80;26.10;;;21.80;76.30;;;;;;5104043;28;20922;-72
2021/08/07 10:57:00;;;;;;;27.73;26.00;;;21.80;77.40;;;;;;5103579;28;20481;-72
2021/08/07 10:59:28;;;;;;;30.73;29.00;;;21.70;77.90;;;;;;5099678;28;20449;-72
2021/08/07 11:01:57;;;;;;;27.53;25.97;;;21.70;78.40;;;;;;5093438;28;20481;-72
2021/08/07 11:04:29;;;;;;;30.20;28.50;;;21.60;79.10;;;;;;5096683;27;21005;-72
2021/08/07 11:07:19;;;;;;;31.27;28.87;;;21.60;79.90;;;;;;5095935;28;21023;-72
2021/08/07 11:10:03;;;;;;;29.77;27.67;;;21.50;80.30;;;;;;5097161;28;20477;-72
2021/08/07 11:12:31;;;;;;;28.43;26.67;;;21.50;80.20;;;;;;5104239;28;20448;-71
2021/08/07 11:15:07;;;;;;;27.50;26.00;;;21.40;79.20;;;;;;5109212;28;20469;-71
2021/08/07 11:17:48;;;;;;;32.13;30.20;;;21.30;79.20;;;;;;5100880;28;20887;-71
2021/08/07 11:20:35;;;;;;;30.03;28.13;;;21.20;79.70;;;;;;5109557;28;20547;-72
2021/08/07 11:23:19;;;;;;;29.13;27.33;;;21.10;80.00;;;;;;5104011;28;20503;-72
2021/08/07 11:25:58;;;;;;;29.00;27.30;;;21.10;80.50;;;;;;5104516;28;20468;-71
2021/08/07 11:28:25;;;;;;;26.80;25.20;;;21.00;80.60;;;;;;5109486;28;20871;-71
2021/08/07 11:31:18;;;;;;;30.40;28.60;;;21.10;80.40;;;;;;5096176;27;20461;-71
2021/08/07 11:33:46;;;;;;;26.80;25.10;;;21.00;80.60;;;;;;5110522;28;21009;-72
2021/08/07 11:36:15;;;;;;;26.40;24.70;;;20.90;81.10;;;;;;5106445;28;20552;-71
2021/08/07 11:39:06;;;;;;;27.40;25.63;;;20.90;81.20;;;;;;5110679;28;20806;-71
2021/08/07 11:41:38;;;;;;;27.23;25.73;;;20.90;81.20;;;;;;5096860;28;20472;-71
2021/08/07 11:44:06;;;;;;;31.27;29.47;;;20.80;82.20;;;;;;5109197;27;20476;-71
2021/08/07 11:46:40;;;;;;;26.43;24.90;;;20.80;82.10;;;;;;5097500;28;20477;-71
2021/08/07 11:49:07;;;;;;;29.83;27.93;;;20.80;82.70;;;;;;5096705;28;20522;-71
2021/08/07 11:51:36;;;;;;;28.43;26.53;;;20.80;83.10;;;;;;5092907;28;20582;-71
2021/08/07 11:54:06;;;;;;;28.30;26.60;;;20.80;83.20;;;;;;5110007;28;20452;-71
2021/08/07 11:56:37;;;;;;;29.33;27.53;;;20.90;83.20;;;;;;5105963;28;20920;-71
2021/08/07 11:59:06;;;;;;;28.80;27.13;;;20.90;83.50;;;;;;5106528;27;20929;-72
2021/08/07 12:01:34;;;;;;;27.40;25.70;;;20.90;83.70;;;;;;5105994;28;20886;-71
2021/08/07 12:04:02;;;;;;;25.70;24.00;;;21.00;83.20;;;;;;5107597;28;20462;-71
2021/08/07 12:06:31;;;;;;;25.60;24.20;;;21.10;82.60;;;;;;5101280;28;20476;-71
2021/08/07 12:08:58;;;;;;;25.20;23.80;;;21.20;82.40;;;;;;5108011;28;20945;-71
2021/08/07 12:11:29;;;;;;;25.27;23.87;;;21.20;82.10;;;;;;5113381;28;20474;-71
2021/08/07 12:13:59;;;;;;;26.50;24.90;;;21.30;81.90;;;;;;5099564;28;20460;-71
2021/08/07 12:16:30;;;;;;;26.73;25.10;;;21.30;81.50;;;;;;5110717;27;20463;-71
2021/08/07 12:18:59;;;;;;;25.20;23.70;;;21.30;80.50;;;;;;5115556;27;20463;-71
2021/08/07 12:21:30;;;;;;;29.03;27.17;;;21.30;80.40;;;;;;5100513;28;20465;-71
2021/08/07 12:23:59;;;;;;;28.53;26.90;;;21.30;80.30;;;;;;5110219;28;21044;-71
2021/08/07 12:26:29;;;;;;;26.80;25.30;;;21.30;80.80;;;;;;5103894;27;20479;-71
2021/08/07 12:28:58;;;;;;;28.33;26.73;;;21.30;80.60;;;;;;5110460;27;20464;-71
2021/08/07 12:31:38;;;;;;;26.60;25.20;;;21.30;80.80;;;;;;5105925;27;20451;-71
2021/08/07 12:34:14;;;;;;;28.60;26.80;;;21.30;80.70;;;;;;5104640;28;20455;-71
2021/08/07 12:36:41;;;;;;;26.80;25.30;;;21.30;80.50;;;;;;5105498;28;20480;-71